• Join FlightAware (Why Join?)
  • Login
  • US Flag 
01:16AM EDT


 

Airport Tracker/Info


-or-


 

Live Flight TrackerFlight Track Log ✈ UAL395 ✈ 28-Apr-2013 ✈ KMCO - KIAH

Flight Track Log - Related Links

Times and Time Zones

All times are in EDT time to prevent confusion due to time zone crossing. See the UAL395 flight status page for this flight to view local times or setup timezone preferences in your user account.

Time Position Orientation Groundspeed Altitude Reporting Facility
EDT Latitude Longitude Course Direction KTS MPH feet Rate Location/Type
07:59AM 28.4167 -81.3167 270° West 155 178 800  Level Orlando TRACON
08:00AM 28.3667 -81.3500 210° Southwest 221 254 2,500 2,040 Climbing Orlando TRACON
08:02AM 28.3500 -81.4333 257° West 306 352 5,100 3,180 Climbing Orlando TRACON
08:03AM 28.4167 -81.7748 270° West  Level FlightAware Approximate
08:04AM 28.4167 -81.8935 270° West  Level FlightAware Approximate
08:04AM 28.3733 -81.6492 277° West 296 341 13,700  Level Jacksonville Center
08:05AM 28.4167 -82.0122 270° West  Level FlightAware Approximate
08:05AM 28.3619 -81.7628 264° West 344 396 14,800  Level Jacksonville Center
08:06AM 28.3358 -81.8833 256° West 368 423 17,000 1,860 Climbing Jacksonville Center
08:07AM 28.3097 -82.0108 257° West 390 449 18,600 900 Climbing Jacksonville Center
08:08AM 28.2856 -82.1358 258° West 406 467 18,900 840 Climbing Jacksonville Center
08:09AM 28.2569 -82.2633 256° West 411 473 20,300 1,440 Climbing Jacksonville Center
08:10AM 28.2283 -82.3931 256° West 417 480 21,800 1,380 Climbing Jacksonville Center
08:11AM 28.1994 -82.5253 256° West 422 486 23,100 1,080 Climbing Jacksonville Center
08:13AM 28.1275 -82.8544 256° West 450 518 25,500 1,200 Climbing Miami Center
08:14AM 28.0944 -82.9961 255° West 461 531 27,200 1,500 Climbing Miami Center
08:15AM 28.0653 -83.1356 257° West 461 531 28,600 1,260 Climbing Miami Center
08:16AM 28.0342 -83.2747 256° West 461 531 29,800 1,020 Climbing Miami Center
08:17AM 28.0508 -83.4144 278° West 453 521 30,700 960 Climbing Miami Center
08:18AM 28.0800 -83.5525 283° West 453 521 31,800 720 Climbing Miami Center
08:21AM 28.1381 -83.8481 283° West 449 517 33,200 600 Climbing Jacksonville Center
08:22AM 28.1619 -83.9850 281° West 449 517 33,900 300 Climbing Jacksonville Center
08:23AM 28.1858 -84.1125 282° West 443 510 33,900  Level Jacksonville Center
08:24AM 28.2117 -84.2447 283° West 431 496 33,900  Level Jacksonville Center
08:25AM 28.2372 -84.3792 282° West 431 496 33,900  Level Jacksonville Center
08:26AM 28.2589 -84.4950 282° West 431 496 33,900 300 Level Jacksonville Center
08:27AM 28.2822 -84.6297 281° West 431 496 34,600 780 Climbing Jacksonville Center
08:28AM 28.3056 -84.7575 282° West 431 496 35,500 600 Climbing Jacksonville Center
08:29AM 28.3306 -84.8875 282° West 426 490 35,900 180 Climbing Jacksonville Center
08:30AM 28.3536 -85.0225 281° West 431 496 35,900  Level Jacksonville Center
08:31AM 28.3764 -85.1481 282° West 426 490 35,900  Level Jacksonville Center
08:32AM 28.4011 -85.2783 282° West 426 490 35,900  Level Jacksonville Center
08:33AM 28.4239 -85.4039 282° West 421 484 35,900  Level Jacksonville Center
08:34AM 28.4461 -85.5367 281° West 415 478 35,900  Level Jacksonville Center
08:35AM 28.4686 -85.6578 282° West 415 478 36,000  Climbing Jacksonville Center
08:36AM 28.4928 -85.7906 282° West 407 468 36,000 -60 Level Jacksonville Center
08:37AM 28.5150 -85.9164 281° West 415 478 35,900 -60 Descending Jacksonville Center
08:38AM 28.5389 -86.0472 282° West 417 480 35,900  Level Jacksonville Center
08:39AM 28.5608 -86.1753 281° West 410 472 35,900  Level Jacksonville Center
08:40AM 28.5806 -86.2967 281° West 410 472 35,900  Level Jacksonville Center
08:41AM 28.6042 -86.4275 282° West 415 478 35,900  Level Jacksonville Center
08:42AM 28.6278 -86.5561 282° West 415 478 35,900  Level Jacksonville Center
08:43AM 28.6469 -86.6844 280° West 415 478 35,900  Level Jacksonville Center
08:44AM 28.6700 -86.8178 281° West 415 478 36,000 -540 Climbing Jacksonville Center
08:45AM 28.6911 -86.9486 280° West 422 486 34,900 -1,680 Descending Jacksonville Center
08:46AM 28.7119 -87.0772 280° West 422 486 32,700 -2,220 Descending Jacksonville Center
08:47AM 28.7367 -87.2133 282° West 429 494 30,500 -1,440 Descending Jacksonville Center
08:48AM 28.7550 -87.3467 279° West 429 494 29,900 -360 Descending Jacksonville Center
08:49AM 28.7806 -87.4931 281° West 453 521 29,900  Level Houston Center
08:50AM 28.8036 -87.6331 281° West 452 520 29,900  Level Houston Center
08:51AM 28.8258 -87.7744 280° West 453 521 29,900  Level Houston Center
08:52AM 28.8481 -87.9133 280° West 450 518 29,900  Level Houston Center
08:53AM 28.8719 -88.0761 280° West 454 522 30,000  Climbing Houston Center
08:54AM 28.8947 -88.2128 281° West 448 516 29,900 -60 Descending Houston Center
08:55AM 28.9150 -88.3522 279° West 447 514 29,900  Level Houston Center
08:56AM 28.9350 -88.4917 279° West 446 513 29,900  Level Houston Center
08:57AM 28.9556 -88.6306 280° West 446 513 29,900  Level Houston Center
08:58AM 28.9764 -88.7706 280° West 448 516 29,900  Level Houston Center
08:59AM 28.9961 -88.9081 279° West 442 509 29,900  Level Houston Center
09:00AM 29.0156 -89.0436 279° West 437 503 29,900  Level Houston Center
09:01AM 29.0347 -89.1831 279° West 441 507 29,900  Level Houston Center
09:02AM 29.0544 -89.3200 279° West 440 506 29,900  Level Houston Center
09:03AM 29.0731 -89.4569 279° West 438 504 29,900  Level Houston Center
09:04AM 29.1031 -89.6233 282° West 443 510 29,900  Level Houston Center
09:05AM 29.1492 -89.7483 293° West 426 490 29,900  Level Houston Center
09:06AM 29.1933 -89.8811 291° West 438 504 29,900  Level Houston Center
09:07AM 29.2364 -90.0122 291° West 440 506 29,900  Level Houston Center
09:08AM 29.2808 -90.1444 291° West 442 509 29,900  Level Houston Center
09:09AM 29.3261 -90.2731 292° West 437 503 29,900  Level Houston Center
09:10AM 29.3706 -90.4017 292° West 434 499 30,000  Climbing Houston Center
09:11AM 29.4158 -90.5333 292° West 439 505 29,900 -60 Descending Houston Center
09:12AM 29.4619 -90.6625 292° West 438 504 29,900  Level Houston Center
09:13AM 29.5072 -90.7942 292° West 441 507 29,900  Level Houston Center
09:14AM 29.5428 -90.9283 287° West 440 506 30,000  Climbing Houston Center
09:15AM 29.5392 -91.0656 268° West 434 499 29,900 -60 Descending Houston Center
09:16AM 29.5325 -91.2022 267° West 428 493 29,900  Level Houston Center
09:17AM 29.5228 -91.3625 266° West 422 486 29,900  Level Houston Center
09:18AM 29.5156 -91.4964 266° West 421 484 29,900  Level Houston Center
09:19AM 29.5075 -91.6297 266° West 420 483 29,900  Level Houston Center
09:20AM 29.4997 -91.7628 266° West 420 483 29,900  Level Houston Center
09:21AM 29.4911 -91.8975 266° West 423 487 29,900  Level Houston Center
09:22AM 29.4831 -92.0294 266° West 419 482 29,900  Level Houston Center
09:23AM 29.4744 -92.1622 266° West 416 479 29,900  Level Houston Center
09:24AM 29.4664 -92.2936 266° West 415 478 29,900  Level Houston Center
09:25AM 29.4586 -92.4267 266° West 416 479 29,900  Level Houston Center
09:26AM 29.4603 -92.5625 271° West 422 486 30,000  Climbing Houston Center
09:27AM 29.4683 -92.7225 273° West 419 482 29,900 -60 Descending Houston Center
09:28AM 29.4744 -92.8592 273° West 426 490 29,900  Level Houston Center
09:29AM 29.4811 -92.9972 273° West 431 496 29,900  Level Houston Center
09:30AM 29.4872 -93.1358 273° West 435 501 29,900  Level Houston Center
09:31AM 29.4928 -93.2750 273° West 436 502 29,900 -900 Level Houston Center
09:32AM 29.4981 -93.4114 273° West 429 494 28,100 -1,920 Descending Houston Center
09:33AM 29.5036 -93.5431 273° West 416 479 26,100 -1,980 Descending Houston Center
09:34AM 29.5081 -93.6711 272° West 406 467 24,100 -2,040 Descending Houston Center
09:35AM 29.5131 -93.7964 273° West 397 457 22,000 -2,100 Descending Houston Center
09:36AM 29.5169 -93.9244 272° West 379 436 20,100 -2,100 Descending Houston Center
09:37AM 29.5208 -93.9817 274° West 370 426 19,000 -1,860 Descending Houston Center
09:37AM 29.5217 -94.0333 271° West 368 423 18,000 -1,920 Descending Houston Center
09:38AM 29.5236 -94.0917 272° West 360 414 17,100 -1,980 Descending Houston Center
09:39AM 29.5261 -94.1472 273° West 359 413 16,000 -2,160 Descending Houston Center
09:39AM 29.5272 -94.2114 271° West 351 404 14,900 -2,100 Descending Houston Center
09:40AM 29.5300 -94.2633 274° West 348 400 13,900 -1,860 Descending Houston Center
09:40AM 29.5317 -94.3189 272° West 341 392 13,100 -1,920 Descending Houston Center
09:41AM 29.5436 -94.3661 286° West 333 383 12,000 -1,920 Descending Houston Center
09:41AM 29.5625 -94.4161 293° West 313 360 11,200 -1,920 Descending Houston Center
09:42AM 29.5806 -94.4544 298° West 311 358 10,100 -2,400 Descending Houston Center
09:42AM 29.6003 -94.5025 295° West 294 338 8,800 -2,280 Descending Houston Center
09:43AM 29.6156 -94.5386 296° West 295 339 7,800 -2,220 Descending Houston Center
09:43AM 29.6358 -94.5869 296° West 283 326 6,600 -1,800 Descending Houston Center
09:44AM 29.6569 -94.6336 298° West 281 323 6,000 -600 Descending Houston Center
09:44AM 29.6686 -94.6644 294° West 275 316 6,000  Level Houston Center
09:45AM 29.6911 -94.7133 298° West 280 322 6,000  Level Houston Center
09:45AM 29.7039 -94.7467 294° West 282 325 6,000  Level Houston Center
09:46AM 29.7247 -94.7942 297° West 282 325 6,000  Level Houston Center
09:46AM 29.7369 -94.8267 293° West 280 322 6,000  Level Houston Center
09:47AM 29.7586 -94.8733 298° West 280 322 6,000  Level Houston Center
09:47AM 29.7719 -94.9089 293° West 276 318 6,000  Level Houston Center
09:48AM 29.7919 -94.9525 298° West 278 320 6,000  Level Houston Center
09:48AM 29.8072 -94.9914 294° West 277 319 6,000  Level Houston Center
09:49AM 29.8253 -95.0314 297° West 277 319 6,000  Level Houston Center
09:49AM 29.8419 -95.0714 296° West 274 315 6,000  Level Houston Center
09:50AM 29.8589 -95.1103 297° West 277 319 6,000  Level Houston Center
09:50AM 29.8744 -95.1492 295° West 277 319 6,000  Level Houston Center
09:51AM 29.8981 -95.2050 296° West 276 318 6,000  Level Houston Center
09:51AM 29.8994 -95.2378 273° West 280 322 6,000  Level Houston Center
09:52AM 29.8994 -95.2939 270° West 279 321 6,000  Level Houston Center
09:52AM 29.8992 -95.3269 269° West 280 322 6,000  Level Houston Center
09:53AM 29.9014 -95.3844 273° West 283 326 6,000  Level Houston Center
09:53AM 29.8992 -95.4186 266° West 291 335 6,000  Level Houston Center
09:54AM 29.9011 -95.4750 272° West 284 327 6,000 -240 Level Houston Center
09:54AM 29.9006 -95.5028 269° West 243 280 5,800 -840 Descending Houston Center
09:55AM 29.9006 -95.5533 270° West 254 292 5,200 -1,140 Descending Houston Center
09:55AM 29.9039 -95.5844 277° West 235 270 4,700 -1,140 Descending Houston Center
09:56AM 29.9325 -95.6056 327° Northwest 232 267 4,100 -1,320 Descending Houston Center
09:56AM 29.9603 -95.6067 358° North 225 259 3,400 -1,080 Descending Houston Center
09:57AM 29.9903 -95.5869 30° Northeast 237 273 3,000 -420 Descending Houston Center
09:57AM 29.9914 -95.5547 88° East 231 266 3,000  Level Houston Center
09:58AM 29.9931 -95.5167 87° East 222 255 3,000 -540 Level Houston Center
09:58AM 29.9917 -95.4872 93° East 206 237 2,500 -1,200 Descending Houston Center
09:59AM 29.9936 -95.4533 86° East 206 237 1,800 -1,140 Descending Houston Center
09:59AM 29.9931 -95.4339 92° East 152 175 1,400 -1,380 Descending Houston Center